Terminal Aerodrome Forecast
Issued by NWS

Home | Current Version | Previous Version | Text Only | Print | Product List | Glossary On
Versions: 1 2 3 4 5 6 7 8 9 10 11 12 13 14 15 16 17 18 19 20 21 22 23 24 25 26 27 28 29 30 31 32
000
FTUS43 KDMX 280535
TAFFOD
TAF
KFOD 280535Z 2806/0106 12010G16KT P6SM BKN040 OVC080
     FM281000 15010KT 5SM BR VCSH OVC010
     FM281300 22009KT 1SM BR VCSH OVC005
     FM281700 29007KT 3SM BR OVC008
     FM282000 33008KT P6SM OVC015=

USA.gov is the U.S. government's official web portal to all federal, state and local government web resources and services.